createdAt,value
2022-10-18T00:00:31.240Z,7.90
2022-10-18T00:03:23.234Z,8.30
2022-10-18T00:05:55.392Z,7.40
2022-10-18T00:08:27.456Z,7.70
2022-10-18T00:10:59.669Z,7.80
2022-10-18T00:13:31.410Z,7.90
2022-10-18T00:16:05.441Z,8.10
2022-10-18T00:18:37.156Z,8.40
2022-10-18T00:21:12.841Z,7.90
2022-10-18T00:23:47.309Z,8.00
2022-10-18T00:26:22.227Z,8.30
2022-10-18T00:28:56.359Z,8.00
2022-10-18T00:31:30.382Z,7.50
2022-10-18T00:34:03.871Z,8.20
2022-10-18T00:36:36.171Z,7.80
2022-10-18T00:39:10.470Z,7.60
2022-10-18T00:41:42.146Z,8.00
2022-10-18T00:44:44.138Z,8.30
2022-10-18T00:47:18.127Z,9.10
2022-10-18T00:49:53.834Z,8.50
2022-10-18T00:52:33.502Z,8.80
2022-10-18T00:55:07.449Z,8.80
2022-10-18T00:57:39.570Z,8.00
2022-10-18T01:00:13.623Z,7.20
2022-10-18T01:02:47.805Z,8.40
2022-10-18T01:05:20.981Z,7.60
2022-10-18T01:08:16.215Z,8.20
2022-10-18T01:11:00.535Z,8.70
2022-10-18T01:13:43.039Z,8.40
2022-10-18T01:16:24.731Z,8.80
2022-10-18T01:19:01.860Z,9.40
2022-10-18T01:21:42.504Z,9.00
2022-10-18T01:24:50.805Z,8.70
2022-10-18T01:27:37.014Z,7.30
2022-10-18T01:30:42.345Z,7.30
2022-10-18T01:33:21.440Z,8.00
2022-10-18T01:35:58.543Z,6.80
2022-10-18T01:38:33.786Z,7.00
2022-10-18T01:41:11.848Z,7.60
2022-10-18T01:43:50.550Z,7.50
2022-10-18T01:46:25.787Z,7.00
2022-10-18T01:48:58.291Z,8.10
2022-10-18T01:51:32.896Z,7.30
2022-10-18T01:54:05.907Z,5.10
2022-10-18T01:56:49.512Z,6.70
2022-10-18T01:59:40.915Z,6.30
2022-10-18T02:02:26.050Z,6.00
2022-10-18T02:05:08.052Z,7.10
2022-10-18T02:07:55.300Z,7.10
2022-10-18T02:10:43.573Z,7.60
2022-10-18T02:13:20.111Z,7.10
2022-10-18T02:15:56.389Z,6.90
2022-10-18T02:18:36.307Z,7.40
2022-10-18T02:21:12.276Z,7.30
2022-10-18T02:23:46.646Z,7.00
2022-10-18T02:26:18.663Z,6.60
2022-10-18T02:28:51.045Z,6.40
2022-10-18T02:31:27.384Z,6.20
2022-10-18T02:34:02.288Z,7.20
2022-10-18T02:36:38.235Z,7.00
2022-10-18T02:39:16.149Z,6.70
2022-10-18T02:41:48.459Z,6.70
2022-10-18T02:44:20.077Z,7.10
2022-10-18T02:46:52.314Z,7.20
2022-10-18T02:49:24.312Z,6.90
2022-10-18T02:51:55.970Z,7.30
2022-10-18T02:54:28.088Z,6.70
2022-10-18T02:56:59.741Z,6.80
2022-10-18T02:59:31.388Z,6.80
2022-10-18T03:02:03.050Z,6.40
2022-10-18T03:04:34.474Z,6.70
2022-10-18T03:07:06.141Z,7.50
2022-10-18T03:09:37.945Z,7.30
2022-10-18T03:12:09.949Z,7.30
2022-10-18T03:14:41.556Z,7.50
2022-10-18T03:17:13.328Z,7.50
2022-10-18T03:19:44.989Z,6.90
2022-10-18T03:22:16.676Z,6.50
2022-10-18T03:24:48.830Z,6.10
2022-10-18T03:27:20.509Z,6.80
2022-10-18T03:29:52.151Z,7.10
2022-10-18T03:32:23.865Z,6.70
2022-10-18T03:34:55.642Z,7.60
2022-10-18T03:37:27.389Z,7.70
2022-10-18T03:39:59.233Z,8.10
2022-10-18T03:42:31.423Z,7.80
2022-10-18T03:45:03.316Z,7.60
2022-10-18T03:47:34.980Z,7.20
2022-10-18T03:50:07.607Z,7.30
2022-10-18T03:52:39.374Z,6.60
2022-10-18T03:55:11.689Z,6.80
2022-10-18T03:57:43.472Z,7.80
2022-10-18T04:00:16.202Z,7.80
2022-10-18T04:02:51.896Z,8.80
2022-10-18T04:05:28.094Z,8.10
2022-10-18T04:08:00.001Z,7.70
2022-10-18T04:10:31.795Z,7.70
2022-10-18T04:13:03.716Z,7.80
2022-10-18T04:15:35.489Z,7.20
2022-10-18T04:18:07.461Z,7.60
2022-10-18T04:20:39.137Z,7.50
2022-10-18T04:23:11.316Z,7.30
2022-10-18T04:28:15.541Z,7.40
2022-10-18T04:30:52.540Z,7.50
2022-10-18T04:33:24.333Z,7.60
2022-10-18T04:35:56.144Z,7.80
2022-10-18T04:38:27.937Z,8.00
2022-10-18T04:40:59.711Z,7.50
2022-10-18T04:43:31.586Z,6.90
2022-10-18T04:46:03.487Z,7.30
2022-10-18T04:48:35.159Z,6.70
2022-10-18T04:51:07.397Z,7.20
2022-10-18T04:53:39.270Z,7.40
2022-10-18T04:56:11.364Z,7.80
2022-10-18T04:58:43.187Z,7.50
2022-10-18T05:01:14.991Z,7.20
2022-10-18T05:03:46.969Z,7.70
2022-10-18T05:06:18.647Z,7.40
2022-10-18T05:08:50.598Z,7.00
2022-10-18T05:11:22.417Z,6.80
2022-10-18T05:13:54.610Z,7.10
2022-10-18T05:16:28.439Z,6.70
2022-10-18T05:19:00.209Z,6.50
2022-10-18T05:21:31.842Z,7.10
2022-10-18T05:24:03.596Z,6.70
2022-10-18T05:26:35.452Z,6.80
2022-10-18T05:29:07.411Z,7.50
2022-10-18T05:31:39.376Z,7.40
2022-10-18T05:34:11.130Z,7.70
2022-10-18T05:36:42.940Z,7.60
2022-10-18T05:39:14.742Z,6.90
2022-10-18T05:41:49.302Z,7.80
2022-10-18T05:44:21.089Z,7.20
2022-10-18T05:46:53.092Z,7.00
2022-10-18T05:49:25.124Z,6.70
2022-10-18T05:51:57.110Z,7.70
2022-10-18T05:54:29.426Z,7.40
2022-10-18T05:57:01.393Z,7.70
2022-10-18T05:59:33.130Z,7.70
2022-10-18T06:02:05.145Z,7.30
2022-10-18T06:04:37.160Z,7.70
2022-10-18T06:07:12.173Z,7.50
2022-10-18T06:09:44.235Z,6.70
2022-10-18T06:12:16.028Z,7.10
2022-10-18T06:14:49.441Z,9.10
2022-10-18T06:17:21.285Z,7.40
2022-10-18T06:19:53.063Z,6.90
2022-10-18T06:22:25.654Z,7.60
2022-10-18T06:24:57.613Z,7.70
2022-10-18T06:27:31.928Z,7.50
2022-10-18T06:30:04.089Z,7.90
2022-10-18T06:32:35.795Z,7.20
2022-10-18T06:35:08.897Z,8.00
2022-10-18T06:40:13.973Z,7.50
2022-10-18T06:42:55.197Z,7.70
2022-10-18T06:45:34.093Z,7.40
2022-10-18T06:48:06.455Z,8.00
2022-10-18T06:50:38.198Z,7.60
2022-10-18T06:53:09.854Z,7.50
2022-10-18T06:55:41.863Z,8.70
2022-10-18T06:58:13.566Z,7.80
2022-10-18T07:00:47.043Z,7.10
2022-10-18T07:03:18.805Z,7.00
2022-10-18T07:05:51.071Z,8.20
2022-10-18T07:08:22.751Z,8.20
2022-10-18T07:10:55.579Z,9.20
2022-10-18T07:13:32.401Z,8.60
2022-10-18T07:16:07.002Z,8.00
2022-10-18T07:18:40.709Z,10.10
2022-10-18T07:21:14.851Z,9.30
2022-10-18T07:23:48.227Z,10.50
2022-10-18T07:26:22.375Z,9.60
2022-10-18T07:28:56.639Z,9.10
2022-10-18T07:31:28.962Z,9.40
2022-10-18T07:34:01.210Z,8.90
2022-10-18T07:36:33.897Z,8.30
2022-10-18T07:39:06.153Z,7.90
2022-10-18T07:41:38.447Z,7.90
2022-10-18T07:44:11.014Z,8.10
2022-10-18T07:46:42.831Z,8.30
2022-10-18T07:49:15.504Z,7.60
2022-10-18T07:51:47.336Z,8.30
2022-10-18T07:54:19.351Z,8.10
2022-10-18T07:56:51.033Z,7.70
2022-10-18T07:59:23.323Z,7.20
2022-10-18T08:01:56.049Z,7.70
2022-10-18T08:04:27.923Z,7.50
2022-10-18T08:06:59.728Z,8.50
2022-10-18T08:09:31.458Z,8.00
2022-10-18T08:12:03.136Z,8.20
2022-10-18T08:14:37.054Z,7.80
2022-10-18T08:17:08.742Z,7.10
2022-10-18T08:19:48.372Z,6.70
2022-10-18T08:22:30.289Z,6.40
2022-10-18T08:25:02.044Z,6.50
2022-10-18T08:27:34.123Z,7.50
2022-10-18T08:30:06.687Z,7.00
2022-10-18T08:32:38.533Z,6.80
2022-10-18T08:35:11.309Z,6.90
2022-10-18T08:37:43.724Z,6.90
2022-10-18T08:40:17.354Z,7.80
2022-10-18T08:43:02.876Z,6.50
2022-10-18T08:45:43.431Z,8.00
2022-10-18T08:48:23.620Z,6.80
2022-10-18T08:50:57.497Z,6.80
2022-10-18T08:53:39.942Z,6.80
2022-10-18T08:56:15.647Z,7.00
2022-10-18T08:58:47.388Z,6.80
2022-10-18T09:01:33.408Z,7.60
2022-10-18T09:04:20.268Z,6.80
2022-10-18T09:07:03.182Z,7.00
2022-10-18T09:09:46.018Z,7.10
2022-10-18T09:12:42.810Z,7.60
2022-10-18T09:15:21.354Z,7.10
2022-10-18T09:18:10.443Z,6.70
2022-10-18T09:20:52.038Z,6.70
2022-10-18T09:23:32.207Z,7.30
2022-10-18T09:26:11.318Z,7.10
2022-10-18T09:28:51.292Z,6.90
2022-10-18T09:31:29.965Z,7.60
2022-10-18T09:34:06.548Z,7.00
2022-10-18T09:36:39.928Z,6.90
2022-10-18T09:39:16.433Z,7.50
2022-10-18T09:41:52.462Z,8.20
2022-10-18T09:44:28.634Z,7.00
2022-10-18T09:47:04.036Z,6.40
2022-10-18T09:49:41.065Z,7.40
2022-10-18T09:52:21.405Z,6.60
2022-10-18T09:54:57.298Z,7.40
2022-10-18T09:57:36.858Z,6.50
2022-10-18T10:00:16.317Z,6.70
2022-10-18T10:02:48.174Z,6.30
2022-10-18T10:05:20.170Z,7.00
2022-10-18T10:07:58.718Z,6.90
2022-10-18T10:10:32.406Z,6.00
2022-10-18T10:13:08.558Z,6.00
2022-10-18T10:15:42.549Z,6.40
2022-10-18T10:18:23.615Z,6.30
2022-10-18T10:20:58.030Z,6.70
2022-10-18T10:23:31.651Z,7.10
2022-10-18T10:26:06.107Z,6.80
2022-10-18T10:28:46.653Z,6.90
2022-10-18T10:31:29.607Z,6.50
2022-10-18T10:34:06.141Z,7.30
2022-10-18T10:36:49.709Z,8.50
2022-10-18T10:39:23.656Z,6.50
2022-10-18T10:41:57.750Z,6.90
2022-10-18T10:44:33.168Z,7.10
2022-10-18T10:47:05.718Z,6.50
2022-10-18T10:49:47.769Z,6.30
2022-10-18T10:52:27.413Z,6.50
2022-10-18T10:55:33.994Z,5.40
2022-10-18T10:58:07.067Z,6.70
2022-10-18T11:00:42.545Z,6.70
2022-10-18T11:03:28.422Z,6.40
2022-10-18T11:06:02.110Z,5.90
2022-10-18T11:08:39.512Z,6.20
2022-10-18T11:11:22.927Z,6.60
2022-10-18T11:14:20.899Z,6.10
2022-10-18T11:17:07.765Z,6.60
2022-10-18T11:19:49.192Z,5.90
2022-10-18T11:22:24.943Z,6.50
2022-10-18T11:24:57.252Z,5.30
2022-10-18T11:27:33.556Z,6.00
2022-10-18T11:30:22.671Z,6.40
2022-10-18T11:33:07.314Z,6.10
2022-10-18T11:35:48.006Z,6.50
2022-10-18T11:38:31.042Z,6.10
2022-10-18T11:41:26.737Z,6.20
2022-10-18T11:44:03.008Z,6.20
2022-10-18T11:46:51.888Z,5.50
2022-10-18T11:49:42.338Z,5.70
2022-10-18T11:52:21.334Z,5.90
2022-10-18T11:55:06.611Z,6.20
2022-10-18T11:57:45.807Z,6.70
2022-10-18T12:00:39.614Z,6.50
2022-10-18T12:03:25.991Z,7.10
2022-10-18T12:06:02.329Z,6.60
2022-10-18T12:08:39.828Z,6.80
2022-10-18T12:11:17.227Z,6.20
2022-10-18T12:13:53.726Z,6.10
2022-10-18T12:16:49.581Z,5.70
2022-10-18T12:19:26.679Z,5.30
2022-10-18T12:22:10.077Z,5.40
2022-10-18T12:24:42.978Z,5.50
2022-10-18T12:27:17.160Z,5.80
2022-10-18T12:29:55.520Z,6.00
2022-10-18T12:32:33.485Z,5.70
2022-10-18T12:35:12.220Z,5.40
2022-10-18T12:38:05.974Z,5.90
2022-10-18T12:40:43.144Z,5.10
2022-10-18T12:43:23.836Z,5.40
2022-10-18T12:45:59.363Z,5.60
2022-10-18T12:48:38.739Z,4.90
2022-10-18T12:51:18.025Z,5.90
2022-10-18T12:53:56.117Z,5.70
2022-10-18T12:56:42.951Z,6.10
2022-10-18T12:59:51.982Z,5.90
2022-10-18T13:02:37.702Z,5.50
2022-10-18T13:05:48.743Z,5.50
2022-10-18T13:08:41.849Z,5.90
2022-10-18T13:11:36.037Z,6.10
2022-10-18T13:14:48.178Z,5.60
2022-10-18T13:17:40.195Z,5.40
2022-10-18T13:20:27.326Z,5.80
2022-10-18T13:23:11.007Z,5.30
2022-10-18T13:25:55.701Z,5.60
2022-10-18T13:28:37.135Z,6.50
2022-10-18T13:31:20.290Z,5.30
2022-10-18T13:33:52.320Z,5.20
2022-10-18T13:36:30.036Z,5.40
2022-10-18T13:39:07.218Z,5.30
2022-10-18T13:42:09.678Z,5.20
2022-10-18T13:44:42.223Z,5.50
2022-10-18T13:47:15.869Z,5.70
2022-10-18T13:50:06.339Z,5.90
2022-10-18T13:53:09.289Z,5.40
2022-10-18T13:55:58.717Z,6.00
2022-10-18T13:58:53.770Z,5.70
2022-10-18T14:01:50.688Z,5.90
2022-10-18T14:04:47.814Z,6.10
2022-10-18T14:07:20.616Z,5.70
2022-10-18T14:09:58.536Z,6.40
2022-10-18T14:12:39.326Z,6.90
2022-10-18T14:15:18.479Z,6.60
2022-10-18T14:17:52.803Z,6.50
2022-10-18T14:20:30.094Z,6.70
2022-10-18T14:23:07.668Z,6.40
2022-10-18T14:25:40.483Z,6.00
2022-10-18T14:28:16.484Z,6.50
2022-10-18T14:30:55.863Z,7.20
2022-10-18T14:33:32.592Z,6.70
2022-10-18T14:36:09.085Z,7.40
2022-10-18T14:38:51.769Z,7.90
2022-10-18T14:41:26.582Z,7.30
2022-10-18T14:44:19.424Z,9.70
2022-10-18T14:46:54.658Z,12.60
2022-10-18T14:49:26.463Z,13.30
2022-10-18T14:52:00.397Z,12.20
2022-10-18T14:54:34.139Z,13.10
2022-10-18T14:57:06.856Z,14.70
2022-10-18T14:59:45.157Z,14.40
2022-10-18T15:02:20.522Z,12.10
2022-10-18T15:04:58.918Z,11.30
2022-10-18T15:07:31.045Z,11.60
2022-10-18T15:10:05.150Z,13.30
2022-10-18T15:13:08.119Z,12.80
2022-10-18T15:15:36.373Z,11.30
2022-10-18T15:18:09.260Z,11.00
2022-10-18T15:20:42.728Z,11.30
2022-10-18T15:23:31.350Z,10.70
2022-10-18T15:26:06.384Z,12.20
2022-10-18T15:28:49.953Z,13.50
2022-10-18T15:31:28.382Z,12.50
2022-10-18T15:34:13.096Z,13.80
2022-10-18T15:36:45.341Z,25.60
2022-10-18T15:39:20.341Z,23.70
2022-10-18T15:41:53.831Z,21.50
2022-10-18T15:44:31.700Z,17.90
2022-10-18T15:47:21.417Z,13.40
2022-10-18T15:49:56.574Z,13.00
2022-10-18T15:52:43.024Z,13.50
2022-10-18T15:55:49.542Z,13.20
2022-10-18T15:58:23.766Z,11.70
2022-10-18T16:00:59.368Z,11.60
2022-10-18T16:03:33.931Z,12.90
2022-10-18T16:06:09.942Z,12.80
2022-10-18T16:08:44.348Z,14.20
2022-10-18T16:11:20.561Z,15.60
2022-10-18T16:13:55.142Z,14.10
2022-10-18T16:16:30.531Z,15.60
2022-10-18T16:19:02.287Z,15.70
2022-10-18T16:21:36.396Z,15.60
2022-10-18T16:24:09.837Z,14.20
2022-10-18T16:26:41.522Z,15.20
2022-10-18T16:29:16.397Z,16.10
2022-10-18T16:31:50.884Z,16.30
2022-10-18T16:34:23.549Z,14.60
2022-10-18T16:36:56.220Z,13.90
2022-10-18T16:39:28.544Z,13.80
2022-10-18T16:42:00.201Z,12.60
2022-10-18T16:44:31.865Z,12.80
2022-10-18T16:47:03.783Z,12.20
2022-10-18T16:49:36.106Z,12.60
2022-10-18T16:52:08.231Z,12.30
2022-10-18T16:54:39.969Z,12.30
2022-10-18T16:57:13.512Z,13.10
2022-10-18T16:59:45.234Z,13.20
2022-10-18T17:02:16.900Z,12.60
2022-10-18T17:04:48.749Z,13.70
2022-10-18T17:07:26.068Z,13.30
2022-10-18T17:09:57.727Z,13.90
2022-10-18T17:12:29.510Z,12.90
2022-10-18T17:15:01.338Z,13.70
2022-10-18T17:17:33.580Z,14.30
2022-10-18T17:20:07.713Z,12.70
2022-10-18T17:22:39.437Z,12.50
2022-10-18T17:25:11.704Z,12.50
2022-10-18T17:27:43.778Z,12.30
2022-10-18T17:30:17.980Z,11.90
2022-10-18T17:32:49.857Z,11.30
2022-10-18T17:35:21.721Z,11.20
2022-10-18T17:37:54.672Z,13.20
2022-10-18T17:40:26.429Z,12.90
2022-10-18T17:42:59.312Z,12.60
2022-10-18T17:45:31.196Z,12.50
2022-10-18T17:48:02.971Z,12.70
2022-10-18T17:50:34.639Z,12.40
2022-10-18T17:53:06.380Z,11.80
2022-10-18T17:55:38.343Z,11.10
2022-10-18T17:58:10.206Z,11.30
2022-10-18T18:00:41.916Z,11.20
2022-10-18T18:03:13.730Z,11.20
2022-10-18T18:05:46.973Z,11.70
2022-10-18T18:08:18.691Z,11.60
2022-10-18T18:10:54.691Z,12.10
2022-10-18T18:13:26.559Z,10.90
2022-10-18T18:15:58.289Z,11.60
2022-10-18T18:18:29.968Z,11.30
2022-10-18T18:21:01.769Z,12.10
2022-10-18T18:23:33.728Z,11.60
2022-10-18T18:26:05.451Z,10.50
2022-10-18T18:28:37.782Z,10.40
2022-10-18T18:31:10.961Z,10.00
2022-10-18T18:33:43.125Z,10.80
2022-10-18T18:36:15.245Z,10.40
2022-10-18T18:38:47.552Z,11.20
2022-10-18T18:41:21.349Z,11.30
2022-10-18T18:43:55.437Z,12.00
2022-10-18T18:46:29.216Z,11.10
2022-10-18T18:49:01.400Z,11.30
2022-10-18T18:51:33.282Z,11.40
2022-10-18T18:54:05.299Z,11.60
2022-10-18T18:56:37.497Z,10.80
2022-10-18T18:59:09.656Z,11.10
2022-10-18T19:01:41.907Z,10.20
2022-10-18T19:04:13.743Z,10.50
2022-10-18T19:06:46.689Z,11.00
2022-10-18T19:09:22.154Z,9.90
2022-10-18T19:11:56.569Z,10.50
2022-10-18T19:14:29.079Z,11.80
2022-10-18T19:17:01.884Z,11.60
2022-10-18T19:19:34.168Z,10.90
2022-10-18T19:22:08.473Z,11.70
2022-10-18T19:24:40.578Z,10.60
2022-10-18T19:27:14.176Z,11.00
2022-10-18T19:29:47.425Z,10.10
2022-10-18T19:32:19.278Z,10.70
2022-10-18T19:34:51.043Z,10.50
2022-10-18T19:37:22.848Z,10.60
2022-10-18T19:39:54.649Z,10.60
2022-10-18T19:42:30.333Z,10.60
2022-10-18T19:45:03.174Z,10.30
2022-10-18T19:47:35.610Z,11.00
2022-10-18T19:50:09.186Z,10.70
2022-10-18T19:52:40.895Z,10.60
2022-10-18T19:55:12.631Z,10.80
2022-10-18T19:57:44.302Z,10.80
2022-10-18T20:00:19.451Z,9.90
2022-10-18T20:02:51.460Z,10.10
2022-10-18T20:05:23.146Z,10.20
2022-10-18T20:07:54.849Z,10.90
2022-10-18T20:10:26.552Z,11.30
2022-10-18T20:12:58.300Z,10.00
2022-10-18T20:15:30.616Z,10.80
2022-10-18T20:18:02.341Z,10.80
2022-10-18T20:20:37.688Z,10.80
2022-10-18T20:23:09.400Z,10.90
2022-10-18T20:25:41.179Z,10.80
2022-10-18T20:28:13.292Z,10.10
2022-10-18T20:30:44.965Z,10.70
2022-10-18T20:33:17.695Z,11.20
2022-10-18T20:35:52.234Z,10.20
2022-10-18T20:38:24.492Z,9.50
2022-10-18T20:40:56.216Z,9.60
2022-10-18T20:43:28.489Z,9.60
2022-10-18T20:46:00.841Z,9.80
2022-10-18T20:48:33.323Z,10.50
2022-10-18T20:51:09.969Z,10.70
2022-10-18T20:53:42.215Z,9.80
2022-10-18T20:56:16.235Z,10.90
2022-10-18T20:58:49.312Z,10.40
2022-10-18T21:01:22.996Z,10.90
2022-10-18T21:03:56.308Z,11.50
2022-10-18T21:06:30.136Z,11.50
2022-10-18T21:09:03.748Z,11.10
2022-10-18T21:11:38.147Z,11.50
2022-10-18T21:14:12.563Z,10.80
2022-10-18T21:16:44.773Z,10.00
2022-10-18T21:19:18.583Z,10.50
2022-10-18T21:21:52.613Z,10.70
2022-10-18T21:24:25.940Z,11.70
2022-10-18T21:27:00.078Z,12.50
2022-10-18T21:29:32.014Z,13.60
2022-10-18T21:32:03.716Z,13.30
2022-10-18T21:34:35.395Z,14.20
2022-10-18T21:37:07.149Z,13.20
2022-10-18T21:39:39.412Z,14.00
2022-10-18T21:42:11.283Z,13.30
2022-10-18T21:44:42.975Z,13.80
2022-10-18T21:47:15.417Z,13.20
2022-10-18T21:49:47.110Z,14.40
2022-10-18T21:52:18.977Z,13.60
2022-10-18T21:54:50.614Z,14.20
2022-10-18T21:57:22.306Z,14.20
2022-10-18T21:59:54.039Z,12.20
2022-10-18T22:02:25.727Z,10.20
2022-10-18T22:04:57.746Z,7.30
2022-10-18T22:07:29.597Z,7.00
2022-10-18T22:10:01.249Z,6.00
2022-10-18T22:12:32.939Z,6.50
2022-10-18T22:15:04.911Z,5.90
2022-10-18T22:17:37.060Z,5.60
2022-10-18T22:20:11.664Z,5.50
2022-10-18T22:22:43.334Z,4.20
2022-10-18T22:25:15.252Z,3.90
2022-10-18T22:27:46.931Z,2.70
2022-10-18T22:30:18.697Z,3.00
2022-10-18T22:32:50.354Z,3.20
2022-10-18T22:35:22.026Z,3.20
2022-10-18T22:37:56.092Z,2.70
2022-10-18T22:40:27.958Z,3.10
2022-10-18T22:42:59.645Z,2.50
2022-10-18T22:45:31.387Z,2.60
2022-10-18T22:48:03.119Z,2.60
2022-10-18T22:50:34.847Z,2.50
2022-10-18T22:53:06.533Z,2.70
2022-10-18T22:55:38.271Z,2.30
2022-10-18T22:58:10.050Z,2.20
2022-10-18T23:00:41.832Z,2.10
2022-10-18T23:03:15.510Z,1.80
2022-10-18T23:05:48.210Z,2.00
2022-10-18T23:08:20.079Z,2.00
2022-10-18T23:10:55.771Z,1.90
2022-10-18T23:13:28.888Z,2.00
2022-10-18T23:16:05.341Z,2.30
2022-10-18T23:18:37.323Z,2.10
2022-10-18T23:21:11.267Z,2.30
2022-10-18T23:23:43.989Z,2.10
2022-10-18T23:26:17.804Z,1.90
2022-10-18T23:28:52.036Z,1.80
2022-10-18T23:31:26.173Z,1.50
2022-10-18T23:34:00.145Z,1.40
2022-10-18T23:36:33.299Z,1.30
2022-10-18T23:39:06.325Z,1.50
2022-10-18T23:41:38.157Z,1.60
2022-10-18T23:44:11.511Z,1.20
2022-10-18T23:46:43.543Z,1.10
2022-10-18T23:49:15.333Z,1.00
2022-10-18T23:51:47.095Z,0.90
2022-10-18T23:54:18.765Z,1.20
2022-10-18T23:56:50.435Z,1.30
2022-10-18T23:59:22.193Z,1.10
